CSN3521 ZUTF-ZSAM
Flight info
| Callsign | CSN3521 |
|---|---|
| Flight time | 1h 58m |
| Altitude | 35100 |
| Route | ATVA9G ATVAX W234 NIXID B330 QP G586 WYN MABAG XEBUL NUVGA VETIB W155 TEBON TEBO8X |
| Aircraft | A333/H-SDE3GHIJ2J3J5M1RVWXYZ/LB2D1 |
Departure
| Time | 2026-05-04 05:45 |
|---|---|
| Airport | Chengdu Tianfu International Airport (ZUTF) |
Arrival
| Time | 2026-05-04 07:43 |
|---|---|
| Airport | Xiamen Gaoqi International Airport (ZSAM) |
| Time | Latitude | Longitude | Altitude | Speed | Heading |
|---|---|---|---|---|---|
| 2026-05-04 05:22 | 30.30971 | 104.44291 | 1468 ft | 0 kts | 292° |
| 2026-05-04 05:31 | 30.30955 | 104.44334 | 1468 ft | 2 kts | 292° |
| 2026-05-04 05:31 | 30.30950 | 104.44350 | 1468 ft | 2 kts | 292° |
| 2026-05-04 05:32 | 30.30944 | 104.44366 | 1468 ft | 2 kts | 292° |
| 2026-05-04 05:32 | 30.30938 | 104.44382 | 1468 ft | 1 kts | 292° |
| 2026-05-04 05:32 | 30.30935 | 104.44392 | 1468 ft | 2 kts | 287° |
| 2026-05-04 05:33 | 30.30937 | 104.44426 | 1468 ft | 2 kts | 241° |
| 2026-05-04 05:33 | 30.30946 | 104.44440 | 1468 ft | 2 kts | 221° |
| 2026-05-04 05:33 | 30.30955 | 104.44448 | 1468 ft | 0 kts | 205° |
| 2026-05-04 05:33 | 30.30948 | 104.44443 | 1468 ft | 4 kts | 206° |
| 2026-05-04 05:34 | 30.30915 | 104.44428 | 1468 ft | 3 kts | 202° |
| 2026-05-04 05:34 | 30.30906 | 104.44423 | 1468 ft | 1 kts | 204° |
| 2026-05-04 05:34 | 30.30905 | 104.44422 | 1468 ft | 0 kts | 204° |
| 2026-05-04 05:35 | 30.30903 | 104.44421 | 1468 ft | 1 kts | 204° |
| 2026-05-04 05:35 | 30.30889 | 104.44414 | 1468 ft | 5 kts | 204° |
| 2026-05-04 05:36 | 30.30826 | 104.44384 | 1468 ft | 13 kts | 202° |
| 2026-05-04 05:36 | 30.30723 | 104.44335 | 1468 ft | 17 kts | 202° |
| 2026-05-04 05:36 | 30.30603 | 104.44276 | 1468 ft | 20 kts | 208° |
| 2026-05-04 05:36 | 30.30465 | 104.44197 | 1468 ft | 22 kts | 203° |
| 2026-05-04 05:37 | 30.30327 | 104.44114 | 1468 ft | 17 kts | 236° |
| 2026-05-04 05:37 | 30.30338 | 104.44041 | 1468 ft | 5 kts | 302° |
| 2026-05-04 05:37 | 30.30355 | 104.43986 | 1468 ft | 10 kts | 289° |
| 2026-05-04 05:38 | 30.30440 | 104.43739 | 1468 ft | 20 kts | 292° |
| 2026-05-04 05:38 | 30.30496 | 104.43583 | 1468 ft | 21 kts | 292° |
| 2026-05-04 05:38 | 30.30556 | 104.43414 | 1468 ft | 23 kts | 292° |
| 2026-05-04 05:38 | 30.30623 | 104.43224 | 1468 ft | 25 kts | 292° |
| 2026-05-04 05:39 | 30.30699 | 104.43011 | 1468 ft | 30 kts | 292° |
| 2026-05-04 05:39 | 30.30416 | 104.42719 | 1468 ft | 52 kts | 202° |
| 2026-05-04 05:39 | 30.30076 | 104.42560 | 1468 ft | 50 kts | 201° |
| 2026-05-04 05:40 | 30.29458 | 104.42270 | 1468 ft | 45 kts | 202° |
| 2026-05-04 05:40 | 30.29165 | 104.42132 | 1468 ft | 43 kts | 202° |
| 2026-05-04 05:40 | 30.28972 | 104.42027 | 1468 ft | 12 kts | 233° |
| 2026-05-04 05:41 | 30.28981 | 104.41959 | 1468 ft | 7 kts | 291° |
| 2026-05-04 05:41 | 30.29003 | 104.41898 | 1468 ft | 7 kts | 292° |
| 2026-05-04 05:41 | 30.29005 | 104.41891 | 1468 ft | 0 kts | 292° |
| 2026-05-04 05:42 | 30.29006 | 104.41888 | 1468 ft | 1 kts | 291° |
| 2026-05-04 05:42 | 30.29019 | 104.41853 | 1468 ft | 9 kts | 291° |
| 2026-05-04 05:42 | 30.29078 | 104.41780 | 1468 ft | 14 kts | 357° |
| 2026-05-04 05:43 | 30.29145 | 104.41799 | 1468 ft | 0 kts | 21° |
| 2026-05-04 05:43 | 30.29146 | 104.41799 | 1468 ft | 1 kts | 21° |
| 2026-05-04 05:43 | 30.29335 | 104.41888 | 1468 ft | 60 kts | 22° |
| 2026-05-04 05:45 | 30.37293 | 104.44153 | 3520 ft | 206 kts | 8° |
| 2026-05-04 05:45 | 30.38769 | 104.44357 | 3774 ft | 219 kts | 13° |
| 2026-05-04 05:47 | 30.50121 | 104.51204 | 6861 ft | 285 kts | 29° |
| 2026-05-04 05:47 | 30.51851 | 104.52314 | 7494 ft | 288 kts | 29° |
| 2026-05-04 05:47 | 30.53634 | 104.53456 | 8137 ft | 290 kts | 28° |
| 2026-05-04 05:48 | 30.55404 | 104.54590 | 8758 ft | 293 kts | 28° |
| 2026-05-04 05:48 | 30.57206 | 104.55743 | 9397 ft | 295 kts | 27° |
| 2026-05-04 05:48 | 30.59036 | 104.56915 | 10025 ft | 298 kts | 27° |
| 2026-05-04 05:48 | 30.60864 | 104.58080 | 10521 ft | 306 kts | 27° |
| 2026-05-04 05:49 | 30.62795 | 104.59314 | 10801 ft | 322 kts | 27° |
| 2026-05-04 05:49 | 30.64822 | 104.60612 | 11072 ft | 338 kts | 27° |
| 2026-05-04 05:49 | 30.66929 | 104.61961 | 11338 ft | 353 kts | 27° |
| 2026-05-04 05:49 | 30.69140 | 104.63390 | 11647 ft | 367 kts | 29° |
| 2026-05-04 05:51 | 30.64967 | 104.78488 | 15774 ft | 391 kts | 180° |
| 2026-05-04 05:51 | 30.62198 | 104.78609 | 16375 ft | 394 kts | 179° |
| 2026-05-04 05:52 | 30.59433 | 104.78781 | 16948 ft | 398 kts | 178° |
| 2026-05-04 05:52 | 30.56647 | 104.78972 | 17520 ft | 402 kts | 178° |
| 2026-05-04 05:52 | 30.53832 | 104.79171 | 18095 ft | 406 kts | 178° |
| 2026-05-04 05:52 | 30.51003 | 104.79375 | 18637 ft | 409 kts | 179° |
| 2026-05-04 05:53 | 30.48133 | 104.79581 | 19157 ft | 414 kts | 179° |
| 2026-05-04 05:54 | 30.27305 | 104.81069 | 22435 ft | 441 kts | 181° |
| 2026-05-04 05:55 | 30.24228 | 104.81287 | 22881 ft | 444 kts | 181° |
| 2026-05-04 05:55 | 30.21120 | 104.81507 | 23277 ft | 448 kts | 182° |
| 2026-05-04 05:55 | 30.17967 | 104.81830 | 23677 ft | 453 kts | 179° |
| 2026-05-04 05:55 | 30.14833 | 104.82328 | 24070 ft | 457 kts | 177° |
| 2026-05-04 05:56 | 30.11649 | 104.82870 | 24439 ft | 461 kts | 177° |
| 2026-05-04 05:56 | 30.08438 | 104.83418 | 24582 ft | 470 kts | 178° |
| 2026-05-04 05:56 | 30.05153 | 104.83978 | 24800 ft | 476 kts | 177° |
| 2026-05-04 05:56 | 30.01879 | 104.84534 | 25137 ft | 480 kts | 177° |
| 2026-05-04 05:57 | 29.98544 | 104.85111 | 25477 ft | 483 kts | 176° |
| 2026-05-04 05:57 | 29.95230 | 104.85847 | 25819 ft | 489 kts | 173° |
| 2026-05-04 05:57 | 29.91881 | 104.86819 | 26154 ft | 494 kts | 170° |
| 2026-05-04 05:57 | 29.88557 | 104.88009 | 26461 ft | 499 kts | 168° |
| 2026-05-04 05:58 | 29.85225 | 104.89263 | 26748 ft | 503 kts | 168° |
| 2026-05-04 05:58 | 29.81886 | 104.90527 | 27062 ft | 505 kts | 168° |
| 2026-05-04 05:58 | 29.78564 | 104.91783 | 27353 ft | 508 kts | 168° |
| 2026-05-04 05:58 | 29.75172 | 104.93059 | 27637 ft | 510 kts | 168° |
| 2026-05-04 05:59 | 29.71787 | 104.94328 | 27902 ft | 513 kts | 168° |
| 2026-05-04 05:59 | 29.68355 | 104.95610 | 28278 ft | 514 kts | 168° |
| 2026-05-04 05:59 | 29.64950 | 104.96882 | 28691 ft | 513 kts | 168° |
| 2026-05-04 05:59 | 29.61561 | 104.98149 | 29114 ft | 512 kts | 168° |
| 2026-05-04 06:00 | 29.58139 | 104.99425 | 29466 ft | 511 kts | 168° |
| 2026-05-04 06:00 | 29.54721 | 105.00697 | 29768 ft | 512 kts | 168° |
| 2026-05-04 06:00 | 29.51317 | 105.01964 | 30081 ft | 512 kts | 169° |
| 2026-05-04 06:00 | 29.47940 | 105.03234 | 30389 ft | 512 kts | 168° |
| 2026-05-04 06:01 | 29.44564 | 105.04534 | 30705 ft | 512 kts | 168° |
| 2026-05-04 06:01 | 29.41145 | 105.05857 | 31048 ft | 511 kts | 168° |
| 2026-05-04 06:03 | 29.17396 | 105.14983 | 32991 ft | 513 kts | 169° |
| 2026-05-04 06:03 | 29.14002 | 105.16277 | 33102 ft | 517 kts | 169° |
| 2026-05-04 06:05 | 28.89522 | 105.25603 | 34428 ft | 531 kts | 169° |
| 2026-05-04 06:05 | 28.82429 | 105.28302 | 34995 ft | 529 kts | 169° |
| 2026-05-04 06:05 | 28.78949 | 105.29622 | 35160 ft | 530 kts | 169° |
| 2026-05-04 06:06 | 28.75447 | 105.30949 | 35164 ft | 530 kts | 169° |
| 2026-05-04 06:06 | 28.68607 | 105.33540 | 35182 ft | 531 kts | 169° |
| 2026-05-04 06:07 | 28.61549 | 105.36211 | 35186 ft | 530 kts | 169° |
| 2026-05-04 06:07 | 28.54499 | 105.38876 | 35197 ft | 529 kts | 169° |
| 2026-05-04 06:08 | 28.47474 | 105.41525 | 35207 ft | 529 kts | 169° |
| 2026-05-04 06:08 | 28.40487 | 105.44157 | 35226 ft | 529 kts | 169° |
| 2026-05-04 06:09 | 28.33435 | 105.46813 | 35241 ft | 529 kts | 169° |
| 2026-05-04 06:11 | 28.05386 | 105.57052 | 35272 ft | 520 kts | 175° |
| 2026-05-04 06:13 | 27.77088 | 105.63675 | 35263 ft | 530 kts | 166° |
| 2026-05-04 06:14 | 27.53433 | 105.76477 | 35303 ft | 534 kts | 161° |
| 2026-05-04 06:15 | 27.46649 | 105.80139 | 35314 ft | 534 kts | 161° |
| 2026-05-04 06:15 | 27.39873 | 105.83791 | 35318 ft | 534 kts | 161° |
| 2026-05-04 06:16 | 27.33171 | 105.87401 | 35320 ft | 534 kts | 161° |
| 2026-05-04 06:16 | 27.26388 | 105.91051 | 35325 ft | 533 kts | 161° |
| 2026-05-04 06:17 | 27.19699 | 105.94644 | 35328 ft | 533 kts | 161° |
| 2026-05-04 06:17 | 27.12946 | 105.98329 | 35324 ft | 543 kts | 158° |
| 2026-05-04 06:18 | 27.06480 | 106.02923 | 35381 ft | 557 kts | 148° |
| 2026-05-04 06:18 | 27.03412 | 106.05720 | 35568 ft | 561 kts | 143° |
| 2026-05-04 06:20 | 26.86351 | 106.29353 | 37326 ft | 559 kts | 130° |
| 2026-05-04 06:21 | 26.74487 | 106.46902 | 37327 ft | 564 kts | 130° |
| 2026-05-04 06:22 | 26.69735 | 106.53907 | 37321 ft | 563 kts | 130° |
| 2026-05-04 06:25 | 26.44561 | 107.08196 | 37323 ft | 571 kts | 108° |
| 2026-05-04 06:26 | 26.42331 | 107.16702 | 37315 ft | 571 kts | 108° |
| 2026-05-04 06:26 | 26.40071 | 107.25302 | 37317 ft | 572 kts | 108° |
| 2026-05-04 06:27 | 26.34442 | 107.46599 | 37299 ft | 572 kts | 108° |
| 2026-05-04 06:28 | 26.32195 | 107.55067 | 37293 ft | 571 kts | 108° |
| 2026-05-04 06:28 | 26.29931 | 107.63578 | 37290 ft | 571 kts | 108° |
| 2026-05-04 06:29 | 26.27659 | 107.72097 | 37287 ft | 571 kts | 109° |
| 2026-05-04 06:29 | 26.25381 | 107.80611 | 37290 ft | 571 kts | 109° |
| 2026-05-04 06:30 | 26.23092 | 107.89148 | 37290 ft | 571 kts | 109° |
| 2026-05-04 06:30 | 26.20833 | 107.97672 | 37283 ft | 572 kts | 109° |
| 2026-05-04 06:31 | 26.18580 | 108.06215 | 37273 ft | 571 kts | 109° |
| 2026-05-04 06:31 | 26.16326 | 108.14706 | 37272 ft | 571 kts | 108° |
| 2026-05-04 06:33 | 26.07265 | 108.48739 | 37253 ft | 573 kts | 108° |
| 2026-05-04 06:34 | 26.05011 | 108.57270 | 37242 ft | 572 kts | 109° |
| 2026-05-04 06:34 | 26.02755 | 108.65770 | 37242 ft | 574 kts | 109° |
| 2026-05-04 06:36 | 25.93723 | 108.99824 | 37229 ft | 573 kts | 109° |
| 2026-05-04 06:37 | 25.91467 | 109.08325 | 37233 ft | 573 kts | 109° |
| 2026-05-04 06:37 | 25.89226 | 109.16925 | 37230 ft | 573 kts | 109° |
| 2026-05-04 06:38 | 25.87011 | 109.25436 | 37230 ft | 573 kts | 109° |
| 2026-05-04 06:40 | 25.77000 | 109.58908 | 37216 ft | 563 kts | 124° |
| 2026-05-04 06:40 | 25.72552 | 109.66051 | 37209 ft | 554 kts | 136° |
| 2026-05-04 06:41 | 25.67215 | 109.72156 | 37215 ft | 545 kts | 143° |
| 2026-05-04 06:41 | 25.61672 | 109.77915 | 37239 ft | 545 kts | 143° |
| 2026-05-04 06:42 | 25.56089 | 109.83746 | 37246 ft | 545 kts | 143° |
| 2026-05-04 06:44 | 25.34056 | 110.06923 | 37215 ft | 544 kts | 143° |
| 2026-05-04 06:44 | 25.28545 | 110.12711 | 37205 ft | 543 kts | 143° |
| 2026-05-04 06:45 | 25.23031 | 110.18493 | 37201 ft | 543 kts | 143° |
| 2026-05-04 06:45 | 25.17549 | 110.24252 | 37201 ft | 542 kts | 142° |
| 2026-05-04 06:46 | 25.12059 | 110.30064 | 37195 ft | 542 kts | 142° |
| 2026-05-04 06:46 | 25.06568 | 110.35880 | 37201 ft | 541 kts | 142° |
| 2026-05-04 06:48 | 24.84712 | 110.58969 | 37210 ft | 540 kts | 142° |
| 2026-05-04 06:50 | 24.66569 | 110.85483 | 37208 ft | 563 kts | 107° |
| 2026-05-04 06:51 | 24.65430 | 110.94052 | 37220 ft | 567 kts | 96° |
| 2026-05-04 06:51 | 24.64811 | 111.02715 | 37217 ft | 567 kts | 96° |
| 2026-05-04 06:52 | 24.64138 | 111.11357 | 37218 ft | 566 kts | 97° |
| 2026-05-04 06:52 | 24.63402 | 111.20007 | 37212 ft | 567 kts | 97° |
| 2026-05-04 06:53 | 24.62655 | 111.28610 | 37205 ft | 567 kts | 97° |
| 2026-05-04 06:53 | 24.61889 | 111.37278 | 37202 ft | 566 kts | 97° |
| 2026-05-04 06:54 | 24.61107 | 111.45931 | 37200 ft | 567 kts | 97° |
| 2026-05-04 06:54 | 24.60328 | 111.54536 | 37199 ft | 567 kts | 97° |
| 2026-05-04 06:55 | 24.59540 | 111.63202 | 37207 ft | 567 kts | 97° |
| 2026-05-04 06:55 | 24.58753 | 111.71822 | 37218 ft | 568 kts | 97° |
| 2026-05-04 06:57 | 24.55600 | 112.05749 | 37233 ft | 568 kts | 98° |
| 2026-05-04 06:58 | 24.54779 | 112.14469 | 37226 ft | 567 kts | 98° |
| 2026-05-04 06:58 | 24.53958 | 112.23106 | 37226 ft | 569 kts | 98° |
| 2026-05-04 06:59 | 24.53130 | 112.31795 | 37218 ft | 568 kts | 98° |
| 2026-05-04 06:59 | 24.52297 | 112.40450 | 37214 ft | 569 kts | 98° |
| 2026-05-04 07:01 | 24.48902 | 112.75304 | 37209 ft | 570 kts | 98° |
| 2026-05-04 07:02 | 24.48042 | 112.83983 | 37212 ft | 570 kts | 98° |
| 2026-05-04 07:02 | 24.47187 | 112.92641 | 37219 ft | 571 kts | 98° |
| 2026-05-04 07:03 | 24.46315 | 113.01392 | 37222 ft | 571 kts | 98° |
| 2026-05-04 07:03 | 24.45436 | 113.10069 | 37224 ft | 571 kts | 98° |
| 2026-05-04 07:04 | 24.44546 | 113.18813 | 37235 ft | 571 kts | 98° |
| 2026-05-04 07:04 | 24.43659 | 113.27454 | 37245 ft | 571 kts | 98° |
| 2026-05-04 07:05 | 24.42765 | 113.36171 | 37236 ft | 571 kts | 98° |
| 2026-05-04 07:05 | 24.41866 | 113.44853 | 37222 ft | 571 kts | 98° |
| 2026-05-04 07:06 | 24.40533 | 113.57954 | 37197 ft | 570 kts | 98° |
| 2026-05-04 07:07 | 24.39643 | 113.66652 | 37188 ft | 570 kts | 98° |
| 2026-05-04 07:09 | 24.36036 | 114.01333 | 37191 ft | 569 kts | 98° |
| 2026-05-04 07:09 | 24.35129 | 114.09946 | 37194 ft | 569 kts | 99° |
| 2026-05-04 07:10 | 24.34282 | 114.18645 | 37201 ft | 569 kts | 97° |
| 2026-05-04 07:12 | 24.31088 | 114.53352 | 37200 ft | 570 kts | 97° |
| 2026-05-04 07:12 | 24.30339 | 114.62006 | 37199 ft | 570 kts | 97° |
| 2026-05-04 07:13 | 24.29586 | 114.70734 | 37197 ft | 571 kts | 97° |
| 2026-05-04 07:13 | 24.28828 | 114.79389 | 37199 ft | 570 kts | 97° |
| 2026-05-04 07:14 | 24.27324 | 114.96799 | 36704 ft | 566 kts | 97° |
| 2026-05-04 07:14 | 24.26961 | 115.01073 | 36544 ft | 564 kts | 97° |
| 2026-05-04 07:15 | 24.26596 | 115.05375 | 36387 ft | 562 kts | 97° |
| 2026-05-04 07:15 | 24.26229 | 115.09642 | 36235 ft | 560 kts | 97° |
| 2026-05-04 07:15 | 24.25857 | 115.13947 | 35856 ft | 560 kts | 98° |
| 2026-05-04 07:15 | 24.25488 | 115.18187 | 35487 ft | 553 kts | 97° |
| 2026-05-04 07:16 | 24.25120 | 115.22436 | 35067 ft | 548 kts | 97° |
| 2026-05-04 07:16 | 24.24757 | 115.26605 | 34595 ft | 544 kts | 98° |
| 2026-05-04 07:16 | 24.24400 | 115.30695 | 34108 ft | 540 kts | 98° |
| 2026-05-04 07:16 | 24.24039 | 115.34809 | 33637 ft | 536 kts | 98° |
| 2026-05-04 07:17 | 24.23683 | 115.38857 | 33158 ft | 533 kts | 98° |
| 2026-05-04 07:17 | 24.23324 | 115.42902 | 32571 ft | 533 kts | 98° |
| 2026-05-04 07:17 | 24.22978 | 115.47025 | 31668 ft | 540 kts | 97° |
| 2026-05-04 07:17 | 24.22680 | 115.51161 | 30880 ft | 543 kts | 97° |
| 2026-05-04 07:18 | 24.22403 | 115.55281 | 30369 ft | 540 kts | 97° |
| 2026-05-04 07:18 | 24.22132 | 115.59364 | 29973 ft | 534 kts | 97° |
| 2026-05-04 07:18 | 24.21856 | 115.63398 | 29455 ft | 532 kts | 97° |
| 2026-05-04 07:18 | 24.21570 | 115.67506 | 28552 ft | 538 kts | 97° |
| 2026-05-04 07:19 | 24.21274 | 115.71642 | 27721 ft | 541 kts | 97° |
| 2026-05-04 07:19 | 24.20978 | 115.75795 | 27163 ft | 537 kts | 97° |
| 2026-05-04 07:19 | 24.20691 | 115.79834 | 26679 ft | 533 kts | 97° |
| 2026-05-04 07:19 | 24.20402 | 115.83871 | 26215 ft | 534 kts | 97° |
| 2026-05-04 07:20 | 24.20107 | 115.87970 | 25763 ft | 532 kts | 97° |
| 2026-05-04 07:20 | 24.19815 | 115.92023 | 25356 ft | 529 kts | 97° |
| 2026-05-04 07:20 | 24.19521 | 115.96054 | 24924 ft | 525 kts | 97° |
| 2026-05-04 07:20 | 24.19228 | 116.00070 | 24520 ft | 521 kts | 97° |
| 2026-05-04 07:22 | 24.17215 | 116.27370 | 21537 ft | 498 kts | 96° |
| 2026-05-04 07:22 | 24.16934 | 116.31125 | 21121 ft | 493 kts | 96° |
| 2026-05-04 07:23 | 24.16654 | 116.34883 | 20691 ft | 490 kts | 96° |
| 2026-05-04 07:23 | 24.16375 | 116.38589 | 20263 ft | 487 kts | 96° |
| 2026-05-04 07:23 | 24.16092 | 116.42326 | 19847 ft | 482 kts | 96° |
| 2026-05-04 07:23 | 24.15888 | 116.46004 | 19415 ft | 480 kts | 94° |
| 2026-05-04 07:24 | 24.15739 | 116.49699 | 18986 ft | 477 kts | 94° |
| 2026-05-04 07:24 | 24.15602 | 116.53303 | 18566 ft | 474 kts | 94° |
| 2026-05-04 07:24 | 24.15464 | 116.56921 | 18129 ft | 471 kts | 93° |
| 2026-05-04 07:24 | 24.15325 | 116.60500 | 17709 ft | 468 kts | 93° |
| 2026-05-04 07:25 | 24.15183 | 116.64055 | 17279 ft | 465 kts | 93° |
| 2026-05-04 07:26 | 24.14256 | 116.88416 | 14334 ft | 446 kts | 92° |
| 2026-05-04 07:27 | 24.14232 | 116.91788 | 13920 ft | 442 kts | 91° |
| 2026-05-04 07:27 | 24.14218 | 116.95154 | 13493 ft | 440 kts | 92° |
| 2026-05-04 07:27 | 24.14203 | 116.98509 | 13051 ft | 437 kts | 91° |
| 2026-05-04 07:27 | 24.14184 | 117.01829 | 12641 ft | 433 kts | 91° |
| 2026-05-04 07:28 | 24.14164 | 117.05087 | 12237 ft | 430 kts | 91° |
| 2026-05-04 07:28 | 24.14143 | 117.08376 | 11834 ft | 427 kts | 91° |
| 2026-05-04 07:28 | 24.14120 | 117.11597 | 11439 ft | 424 kts | 91° |
| 2026-05-04 07:28 | 24.14098 | 117.14834 | 11042 ft | 422 kts | 91° |
| 2026-05-04 07:29 | 24.14074 | 117.18070 | 10652 ft | 418 kts | 91° |
| 2026-05-04 07:29 | 24.14052 | 117.21231 | 10281 ft | 415 kts | 91° |
| 2026-05-04 07:29 | 24.14027 | 117.24426 | 10199 ft | 414 kts | 91° |
| 2026-05-04 07:29 | 24.14004 | 117.27581 | 10143 ft | 415 kts | 91° |
| 2026-05-04 07:30 | 24.13979 | 117.30756 | 10076 ft | 415 kts | 91° |
| 2026-05-04 07:30 | 24.13951 | 117.33927 | 10011 ft | 410 kts | 91° |
| 2026-05-04 07:30 | 24.13926 | 117.36992 | 9969 ft | 396 kts | 91° |
| 2026-05-04 07:30 | 24.13903 | 117.39922 | 9914 ft | 383 kts | 91° |
| 2026-05-04 07:31 | 24.13878 | 117.42807 | 9680 ft | 377 kts | 91° |
| 2026-05-04 07:31 | 24.13850 | 117.45686 | 9406 ft | 372 kts | 91° |
| 2026-05-04 07:33 | 24.22673 | 117.60773 | 7556 ft | 336 kts | 44° |
| 2026-05-04 07:33 | 24.24285 | 117.62645 | 7316 ft | 332 kts | 45° |
| 2026-05-04 07:33 | 24.25874 | 117.64522 | 7075 ft | 328 kts | 46° |
| 2026-05-04 07:33 | 24.27411 | 117.66353 | 6756 ft | 321 kts | 47° |
| 2026-05-04 07:34 | 24.28907 | 117.68146 | 6270 ft | 313 kts | 47° |
| 2026-05-04 07:34 | 24.30361 | 117.69888 | 5818 ft | 303 kts | 47° |
| 2026-05-04 07:34 | 24.31754 | 117.71563 | 5509 ft | 289 kts | 47° |
| 2026-05-04 07:34 | 24.33081 | 117.73160 | 5361 ft | 277 kts | 47° |
| 2026-05-04 07:35 | 24.34391 | 117.74735 | 5189 ft | 275 kts | 47° |
| 2026-05-04 07:35 | 24.35661 | 117.76262 | 5022 ft | 267 kts | 47° |
| 2026-05-04 07:35 | 24.36895 | 117.77744 | 5011 ft | 255 kts | 47° |
| 2026-05-04 07:35 | 24.38083 | 117.79171 | 5005 ft | 244 kts | 48° |
| 2026-05-04 07:36 | 24.39200 | 117.80535 | 5002 ft | 232 kts | 52° |
| 2026-05-04 07:36 | 24.39879 | 117.82093 | 4932 ft | 222 kts | 80° |
| 2026-05-04 07:38 | 24.41116 | 117.93877 | 2998 ft | 196 kts | 61° |
| 2026-05-04 07:38 | 24.41811 | 117.95113 | 2991 ft | 187 kts | 54° |
| 2026-05-04 07:38 | 24.42598 | 117.96246 | 3001 ft | 180 kts | 52° |
| 2026-05-04 07:38 | 24.43354 | 117.97285 | 2999 ft | 167 kts | 52° |
| 2026-05-04 07:39 | 24.44066 | 117.98267 | 2981 ft | 161 kts | 51° |
| 2026-05-04 07:39 | 24.44752 | 117.99221 | 2781 ft | 154 kts | 51° |
| 2026-05-04 07:39 | 24.45399 | 118.00125 | 2575 ft | 148 kts | 52° |
| 2026-05-04 07:39 | 24.46042 | 118.01028 | 2391 ft | 148 kts | 51° |
| 2026-05-04 07:40 | 24.46682 | 118.01928 | 2207 ft | 148 kts | 51° |
| 2026-05-04 07:40 | 24.47327 | 118.02834 | 2012 ft | 148 kts | 51° |
| 2026-05-04 07:40 | 24.47964 | 118.03728 | 1820 ft | 147 kts | 51° |
| 2026-05-04 07:40 | 24.48599 | 118.04619 | 1627 ft | 147 kts | 50° |
| 2026-05-04 07:41 | 24.49233 | 118.05507 | 1432 ft | 147 kts | 51° |
| 2026-05-04 07:41 | 24.49863 | 118.06390 | 1231 ft | 146 kts | 51° |
| 2026-05-04 07:41 | 24.50502 | 118.07286 | 1041 ft | 146 kts | 51° |
| 2026-05-04 07:41 | 24.51125 | 118.08158 | 852 ft | 145 kts | 51° |
| 2026-05-04 07:42 | 24.51747 | 118.09042 | 650 ft | 145 kts | 51° |
| 2026-05-04 07:42 | 24.52383 | 118.09923 | 451 ft | 144 kts | 51° |
| 2026-05-04 07:42 | 24.53008 | 118.10794 | 266 ft | 142 kts | 52° |
| 2026-05-04 07:42 | 24.53619 | 118.11652 | 109 ft | 139 kts | 52° |
| 2026-05-04 07:43 | 24.54187 | 118.12450 | 81 ft | 109 kts | 51° |
| 2026-05-04 07:43 | 24.54492 | 118.12887 | 81 ft | 44 kts | 67° |
| 2026-05-04 07:43 | 24.54532 | 118.13087 | 81 ft | 11 kts | 81° |
| 2026-05-04 07:43 | 24.54496 | 118.13131 | 81 ft | 8 kts | 182° |
| 2026-05-04 07:44 | 24.54440 | 118.13088 | 81 ft | 10 kts | 227° |
| 2026-05-04 07:44 | 24.54388 | 118.13019 | 81 ft | 12 kts | 232° |
| 2026-05-04 07:44 | 24.54334 | 118.12942 | 81 ft | 13 kts | 233° |
| 2026-05-04 07:44 | 24.54275 | 118.12857 | 81 ft | 14 kts | 231° |
| 2026-05-04 07:45 | 24.54199 | 118.12799 | 81 ft | 13 kts | 169° |
| 2026-05-04 07:45 | 24.54115 | 118.12853 | 81 ft | 14 kts | 155° |
| 2026-05-04 07:45 | 24.54053 | 118.12888 | 81 ft | 5 kts | 143° |
| 2026-05-04 07:45 | 24.54031 | 118.12907 | 81 ft | 0 kts | 142° |